sensor_id;sensor_type;location;lat;lon;timestamp;temperature;humidity
68804;SHT31;55787;52.678;13.314;2023-02-03T00:01:48;0.37;94.57
68804;SHT31;55787;52.678;13.314;2023-02-03T00:04:15;0.39;94.53
68804;SHT31;55787;52.678;13.314;2023-02-03T00:06:42;0.41;94.56
68804;SHT31;55787;52.678;13.314;2023-02-03T00:09:09;0.45;94.82
68804;SHT31;55787;52.678;13.314;2023-02-03T00:11:36;0.49;94.78
68804;SHT31;55787;52.678;13.314;2023-02-03T00:14:03;0.56;94.73
68804;SHT31;55787;52.678;13.314;2023-02-03T00:16:30;0.62;94.85
68804;SHT31;55787;52.678;13.314;2023-02-03T00:18:57;0.70;94.97
68804;SHT31;55787;52.678;13.314;2023-02-03T00:21:24;0.73;94.85
68804;SHT31;55787;52.678;13.314;2023-02-03T00:23:51;0.77;94.76
68804;SHT31;55787;52.678;13.314;2023-02-03T00:26:17;0.93;94.94
68804;SHT31;55787;52.678;13.314;2023-02-03T00:28:44;1.01;94.90
68804;SHT31;55787;52.678;13.314;2023-02-03T00:31:19;1.10;95.18
68804;SHT31;55787;52.678;13.314;2023-02-03T00:33:46;1.42;96.67
68804;SHT31;55787;52.678;13.314;2023-02-03T00:36:13;1.41;96.06
68804;SHT31;55787;52.678;13.314;2023-02-03T00:38:40;1.42;96.34
68804;SHT31;55787;52.678;13.314;2023-02-03T00:41:06;1.66;96.92
68804;SHT31;55787;52.678;13.314;2023-02-03T00:43:33;1.66;96.86
68804;SHT31;55787;52.678;13.314;2023-02-03T00:46:00;1.70;97.14
68804;SHT31;55787;52.678;13.314;2023-02-03T00:48:27;1.75;97.51
68804;SHT31;55787;52.678;13.314;2023-02-03T00:50:53;1.78;97.54
68804;SHT31;55787;52.678;13.314;2023-02-03T00:53:20;1.92;97.89
68804;SHT31;55787;52.678;13.314;2023-02-03T00:55:46;1.90;97.55
68804;SHT31;55787;52.678;13.314;2023-02-03T00:58:13;1.99;97.99
68804;SHT31;55787;52.678;13.314;2023-02-03T01:00:40;2.06;97.86
68804;SHT31;55787;52.678;13.314;2023-02-03T01:03:06;2.05;98.16
68804;SHT31;55787;52.678;13.314;2023-02-03T01:05:33;2.06;98.32
68804;SHT31;55787;52.678;13.314;2023-02-03T01:08:00;2.16;98.37
68804;SHT31;55787;52.678;13.314;2023-02-03T01:10:28;2.16;98.08
68804;SHT31;55787;52.678;13.314;2023-02-03T01:12:55;2.19;98.47
68804;SHT31;55787;52.678;13.314;2023-02-03T01:15:22;2.23;98.34
68804;SHT31;55787;52.678;13.314;2023-02-03T01:17:49;2.27;98.25
68804;SHT31;55787;52.678;13.314;2023-02-03T01:20:15;2.21;98.73
68804;SHT31;55787;52.678;13.314;2023-02-03T01:22:44;2.30;98.84
68804;SHT31;55787;52.678;13.314;2023-02-03T01:25:10;2.27;98.75
68804;SHT31;55787;52.678;13.314;2023-02-03T01:27:37;2.29;98.47
68804;SHT31;55787;52.678;13.314;2023-02-03T01:30:04;2.30;98.51
68804;SHT31;55787;52.678;13.314;2023-02-03T01:32:32;2.33;98.18
68804;SHT31;55787;52.678;13.314;2023-02-03T01:34:59;2.30;98.29
68804;SHT31;55787;52.678;13.314;2023-02-03T01:37:25;2.34;98.02
68804;SHT31;55787;52.678;13.314;2023-02-03T01:39:52;2.29;98.07
68804;SHT31;55787;52.678;13.314;2023-02-03T01:42:19;2.24;97.94
68804;SHT31;55787;52.678;13.314;2023-02-03T01:44:47;2.20;98.07
68804;SHT31;55787;52.678;13.314;2023-02-03T01:49:55;2.09;98.54
68804;SHT31;55787;52.678;13.314;2023-02-03T01:52:24;2.02;98.68
68804;SHT31;55787;52.678;13.314;2023-02-03T01:54:52;2.05;98.56
68804;SHT31;55787;52.678;13.314;2023-02-03T01:57:25;2.05;98.56
68804;SHT31;55787;52.678;13.314;2023-02-03T01:59:56;2.00;98.98
68804;SHT31;55787;52.678;13.314;2023-02-03T02:02:25;1.99;98.82
68804;SHT31;55787;52.678;13.314;2023-02-03T02:05:06;2.00;98.85
68804;SHT31;55787;52.678;13.314;2023-02-03T02:07:36;2.03;98.57
68804;SHT31;55787;52.678;13.314;2023-02-03T02:10:04;2.10;98.22
68804;SHT31;55787;52.678;13.314;2023-02-03T02:12:32;2.05;98.08
68804;SHT31;55787;52.678;13.314;2023-02-03T02:14:58;2.02;98.53
68804;SHT31;55787;52.678;13.314;2023-02-03T02:17:45;1.95;98.61
68804;SHT31;55787;52.678;13.314;2023-02-03T02:20:32;1.95;98.73
68804;SHT31;55787;52.678;13.314;2023-02-03T02:36:07;1.89;99.14
68804;SHT31;55787;52.678;13.314;2023-02-03T02:41:45;1.85;98.58
68804;SHT31;55787;52.678;13.314;2023-02-03T02:44:35;1.92;98.27
68804;SHT31;55787;52.678;13.314;2023-02-03T02:47:14;1.85;98.34
68804;SHT31;55787;52.678;13.314;2023-02-03T02:50:04;1.80;98.71
68804;SHT31;55787;52.678;13.314;2023-02-03T02:52:36;1.82;98.59
68804;SHT31;55787;52.678;13.314;2023-02-03T02:55:14;1.92;98.46
68804;SHT31;55787;52.678;13.314;2023-02-03T02:57:42;1.90;98.18
68804;SHT31;55787;52.678;13.314;2023-02-03T03:00:11;1.93;98.34
68804;SHT31;55787;52.678;13.314;2023-02-03T03:02:37;1.92;98.26
68804;SHT31;55787;52.678;13.314;2023-02-03T03:05:08;1.95;98.21
68804;SHT31;55787;52.678;13.314;2023-02-03T03:07:58;2.05;98.19
68804;SHT31;55787;52.678;13.314;2023-02-03T03:10:30;2.03;97.93
68804;SHT31;55787;52.678;13.314;2023-02-03T03:13:07;2.00;98.07
68804;SHT31;55787;52.678;13.314;2023-02-03T03:15:35;1.96;98.29
68804;SHT31;55787;52.678;13.314;2023-02-03T03:18:06;1.90;98.82
68804;SHT31;55787;52.678;13.314;2023-02-03T03:20:35;1.90;99.10
68804;SHT31;55787;52.678;13.314;2023-02-03T03:23:06;1.90;99.45
68804;SHT31;55787;52.678;13.314;2023-02-03T03:25:43;1.92;99.38
68804;SHT31;55787;52.678;13.314;2023-02-03T03:28:36;2.00;99.19
68804;SHT31;55787;52.678;13.314;2023-02-03T03:31:05;2.02;99.22
68804;SHT31;55787;52.678;13.314;2023-02-03T03:33:32;2.00;99.35
68804;SHT31;55787;52.678;13.314;2023-02-03T03:36:08;2.11;99.27
68804;SHT31;55787;52.678;13.314;2023-02-03T03:38:46;2.16;98.83
68804;SHT31;55787;52.678;13.314;2023-02-03T03:44:01;2.09;99.71
68804;SHT31;55787;52.678;13.314;2023-02-03T03:46:40;2.10;99.60
68804;SHT31;55787;52.678;13.314;2023-02-03T03:49:09;2.16;99.68
68804;SHT31;55787;52.678;13.314;2023-02-03T03:51:47;2.17;99.71
68804;SHT31;55787;52.678;13.314;2023-02-03T03:54:17;2.20;99.96
68804;SHT31;55787;52.678;13.314;2023-02-03T03:56:59;2.27;99.73
68804;SHT31;55787;52.678;13.314;2023-02-03T03:59:30;2.30;99.99
68804;SHT31;55787;52.678;13.314;2023-02-03T04:01:58;2.36;99.99
68804;SHT31;55787;52.678;13.314;2023-02-03T04:04:35;2.44;99.99
68804;SHT31;55787;52.678;13.314;2023-02-03T04:07:03;2.54;99.99
68804;SHT31;55787;52.678;13.314;2023-02-03T04:09:29;2.58;99.99
68804;SHT31;55787;52.678;13.314;2023-02-03T04:11:56;2.60;99.99
68804;SHT31;55787;52.678;13.314;2023-02-03T04:14:34;2.68;99.99
68804;SHT31;55787;52.678;13.314;2023-02-03T04:17:03;2.71;99.99
68804;SHT31;55787;52.678;13.314;2023-02-03T04:19:30;2.75;99.99
68804;SHT31;55787;52.678;13.314;2023-02-03T04:21:56;2.78;99.99
68804;SHT31;55787;52.678;13.314;2023-02-03T04:24:23;2.82;99.99
68804;SHT31;55787;52.678;13.314;2023-02-03T04:26:50;2.85;99.99
68804;SHT31;55787;52.678;13.314;2023-02-03T04:29:17;2.91;99.99
68804;SHT31;55787;52.678;13.314;2023-02-03T04:31:44;2.96;99.99
68804;SHT31;55787;52.678;13.314;2023-02-03T04:34:10;2.95;99.99
68804;SHT31;55787;52.678;13.314;2023-02-03T04:36:37;2.98;99.99
68804;SHT31;55787;52.678;13.314;2023-02-03T04:39:04;3.05;99.99
68804;SHT31;55787;52.678;13.314;2023-02-03T04:41:30;3.09;99.99
68804;SHT31;55787;52.678;13.314;2023-02-03T04:43:57;3.09;99.99
68804;SHT31;55787;52.678;13.314;2023-02-03T04:46:24;3.15;99.99
68804;SHT31;55787;52.678;13.314;2023-02-03T04:48:50;3.22;99.99
68804;SHT31;55787;52.678;13.314;2023-02-03T04:51:17;3.22;99.99
68804;SHT31;55787;52.678;13.314;2023-02-03T04:53:43;3.27;99.99
68804;SHT31;55787;52.678;13.314;2023-02-03T04:56:10;3.36;99.99
68804;SHT31;55787;52.678;13.314;2023-02-03T04:58:37;3.41;99.99
68804;SHT31;55787;52.678;13.314;2023-02-03T05:01:07;3.49;99.99
68804;SHT31;55787;52.678;13.314;2023-02-03T05:03:34;3.51;99.99
68804;SHT31;55787;52.678;13.314;2023-02-03T05:06:01;3.56;99.99
68804;SHT31;55787;52.678;13.314;2023-02-03T05:08:29;3.61;99.99
68804;SHT31;55787;52.678;13.314;2023-02-03T05:10:56;3.67;99.99
68804;SHT31;55787;52.678;13.314;2023-02-03T05:13:24;3.73;99.99
68804;SHT31;55787;52.678;13.314;2023-02-03T05:15:51;3.82;99.99
68804;SHT31;55787;52.678;13.314;2023-02-03T05:18:18;3.88;99.99
68804;SHT31;55787;52.678;13.314;2023-02-03T05:20:44;3.99;99.99
68804;SHT31;55787;52.678;13.314;2023-02-03T05:23:11;4.05;99.99
68804;SHT31;55787;52.678;13.314;2023-02-03T05:25:37;4.09;99.99
68804;SHT31;55787;52.678;13.314;2023-02-03T05:28:04;4.12;99.99
68804;SHT31;55787;52.678;13.314;2023-02-03T05:30:31;4.28;99.99
68804;SHT31;55787;52.678;13.314;2023-02-03T05:32:58;4.25;99.99
68804;SHT31;55787;52.678;13.314;2023-02-03T05:35:24;4.31;99.99
68804;SHT31;55787;52.678;13.314;2023-02-03T05:37:51;4.42;99.99
68804;SHT31;55787;52.678;13.314;2023-02-03T05:40:17;4.48;99.99
68804;SHT31;55787;52.678;13.314;2023-02-03T05:43:03;4.64;99.99
68804;SHT31;55787;52.678;13.314;2023-02-03T05:45:30;4.69;99.99
68804;SHT31;55787;52.678;13.314;2023-02-03T05:47:57;4.70;99.99
68804;SHT31;55787;52.678;13.314;2023-02-03T05:50:23;4.74;99.99
68804;SHT31;55787;52.678;13.314;2023-02-03T05:52:52;4.84;99.99
68804;SHT31;55787;52.678;13.314;2023-02-03T05:55:19;4.81;99.99
68804;SHT31;55787;52.678;13.314;2023-02-03T05:57:45;4.88;99.99
68804;SHT31;55787;52.678;13.314;2023-02-03T06:00:12;4.93;99.99
68804;SHT31;55787;52.678;13.314;2023-02-03T06:02:42;5.07;99.99
68804;SHT31;55787;52.678;13.314;2023-02-03T06:05:08;5.15;99.99
68804;SHT31;55787;52.678;13.314;2023-02-03T06:07:35;5.14;99.99
68804;SHT31;55787;52.678;13.314;2023-02-03T06:10:02;5.24;99.99
68804;SHT31;55787;52.678;13.314;2023-02-03T06:12:31;5.32;99.99
68804;SHT31;55787;52.678;13.314;2023-02-03T06:14:59;5.39;99.99
68804;SHT31;55787;52.678;13.314;2023-02-03T06:17:26;5.45;99.99
68804;SHT31;55787;52.678;13.314;2023-02-03T06:19:52;5.58;99.99
68804;SHT31;55787;52.678;13.314;2023-02-03T06:22:19;5.56;99.99
68804;SHT31;55787;52.678;13.314;2023-02-03T06:24:45;5.65;99.99
68804;SHT31;55787;52.678;13.314;2023-02-03T06:27:14;5.73;99.99
68804;SHT31;55787;52.678;13.314;2023-02-03T06:29:41;5.86;99.99
68804;SHT31;55787;52.678;13.314;2023-02-03T06:32:08;5.89;99.99
68804;SHT31;55787;52.678;13.314;2023-02-03T06:34:35;5.90;99.99
68804;SHT31;55787;52.678;13.314;2023-02-03T06:37:01;6.00;99.99
68804;SHT31;55787;52.678;13.314;2023-02-03T06:39:28;6.02;99.99
68804;SHT31;55787;52.678;13.314;2023-02-03T06:41:55;6.09;99.99
68804;SHT31;55787;52.678;13.314;2023-02-03T06:44:22;6.10;99.99
68804;SHT31;55787;52.678;13.314;2023-02-03T06:46:48;6.16;99.99
68804;SHT31;55787;52.678;13.314;2023-02-03T06:49:16;6.18;99.99
68804;SHT31;55787;52.678;13.314;2023-02-03T06:51:44;6.17;99.99
68804;SHT31;55787;52.678;13.314;2023-02-03T06:54:11;6.20;99.99
68804;SHT31;55787;52.678;13.314;2023-02-03T06:56:39;6.18;99.99
68804;SHT31;55787;52.678;13.314;2023-02-03T06:59:05;6.24;99.99
68804;SHT31;55787;52.678;13.314;2023-02-03T07:01:32;6.30;99.99
68804;SHT31;55787;52.678;13.314;2023-02-03T07:03:59;6.31;99.99
68804;SHT31;55787;52.678;13.314;2023-02-03T07:06:26;6.35;99.99
68804;SHT31;55787;52.678;13.314;2023-02-03T07:08:55;6.38;99.99
68804;SHT31;55787;52.678;13.314;2023-02-03T07:11:22;6.41;99.99
68804;SHT31;55787;52.678;13.314;2023-02-03T07:13:50;6.40;99.99
68804;SHT31;55787;52.678;13.314;2023-02-03T07:16:17;6.51;99.99
68804;SHT31;55787;52.678;13.314;2023-02-03T07:18:45;6.54;99.99
68804;SHT31;55787;52.678;13.314;2023-02-03T07:21:15;6.52;99.99
68804;SHT31;55787;52.678;13.314;2023-02-03T07:23:42;6.58;99.99
68804;SHT31;55787;52.678;13.314;2023-02-03T07:26:09;6.62;99.99
68804;SHT31;55787;52.678;13.314;2023-02-03T07:28:36;6.62;99.99
68804;SHT31;55787;52.678;13.314;2023-02-03T07:31:02;6.65;99.99
68804;SHT31;55787;52.678;13.314;2023-02-03T07:33:36;6.71;99.99
68804;SHT31;55787;52.678;13.314;2023-02-03T07:36:04;6.73;99.99
68804;SHT31;55787;52.678;13.314;2023-02-03T07:38:30;6.72;99.99
68804;SHT31;55787;52.678;13.314;2023-02-03T07:40:57;6.73;99.99
68804;SHT31;55787;52.678;13.314;2023-02-03T07:43:24;6.79;99.99
68804;SHT31;55787;52.678;13.314;2023-02-03T07:45:51;6.75;99.99
68804;SHT31;55787;52.678;13.314;2023-02-03T07:48:17;6.79;99.99
68804;SHT31;55787;52.678;13.314;2023-02-03T07:50:44;6.79;99.99
68804;SHT31;55787;52.678;13.314;2023-02-03T07:53:11;6.79;99.99
68804;SHT31;55787;52.678;13.314;2023-02-03T07:55:38;6.78;99.99
68804;SHT31;55787;52.678;13.314;2023-02-03T07:58:05;6.85;99.99
68804;SHT31;55787;52.678;13.314;2023-02-03T08:00:32;6.81;99.99
68804;SHT31;55787;52.678;13.314;2023-02-03T08:02:59;6.86;99.99
68804;SHT31;55787;52.678;13.314;2023-02-03T08:05:27;6.86;99.98
68804;SHT31;55787;52.678;13.314;2023-02-03T08:07:55;6.88;99.99
68804;SHT31;55787;52.678;13.314;2023-02-03T08:10:22;6.86;99.99
68804;SHT31;55787;52.678;13.314;2023-02-03T08:12:52;6.86;99.99
68804;SHT31;55787;52.678;13.314;2023-02-03T08:15:19;6.83;99.99
68804;SHT31;55787;52.678;13.314;2023-02-03T08:17:47;6.88;99.99
68804;SHT31;55787;52.678;13.314;2023-02-03T08:20:14;6.88;99.99
68804;SHT31;55787;52.678;13.314;2023-02-03T08:22:42;6.88;99.99
68804;SHT31;55787;52.678;13.314;2023-02-03T08:25:09;6.89;99.99
68804;SHT31;55787;52.678;13.314;2023-02-03T08:27:37;6.89;99.99
68804;SHT31;55787;52.678;13.314;2023-02-03T08:30:05;6.88;99.99
68804;SHT31;55787;52.678;13.314;2023-02-03T08:32:32;6.92;99.99
68804;SHT31;55787;52.678;13.314;2023-02-03T08:34:59;6.93;99.99
68804;SHT31;55787;52.678;13.314;2023-02-03T08:37:26;6.93;99.99
68804;SHT31;55787;52.678;13.314;2023-02-03T08:39:55;6.97;99.99
68804;SHT31;55787;52.678;13.314;2023-02-03T08:42:22;7.02;99.99
68804;SHT31;55787;52.678;13.314;2023-02-03T08:44:48;6.97;99.99
68804;SHT31;55787;52.678;13.314;2023-02-03T08:47:15;7.00;99.99
68804;SHT31;55787;52.678;13.314;2023-02-03T08:49:42;6.96;99.99
68804;SHT31;55787;52.678;13.314;2023-02-03T08:52:11;7.02;99.97
68804;SHT31;55787;52.678;13.314;2023-02-03T08:54:38;7.02;99.99
68804;SHT31;55787;52.678;13.314;2023-02-03T08:57:05;7.03;99.99
68804;SHT31;55787;52.678;13.314;2023-02-03T08:59:33;6.99;99.99
68804;SHT31;55787;52.678;13.314;2023-02-03T09:02:03;7.06;99.99
68804;SHT31;55787;52.678;13.314;2023-02-03T09:04:30;7.09;99.99
68804;SHT31;55787;52.678;13.314;2023-02-03T09:07:00;7.09;99.99
68804;SHT31;55787;52.678;13.314;2023-02-03T09:09:28;7.12;99.99
68804;SHT31;55787;52.678;13.314;2023-02-03T09:11:55;7.12;99.99
68804;SHT31;55787;52.678;13.314;2023-02-03T09:14:31;7.10;99.99
68804;SHT31;55787;52.678;13.314;2023-02-03T09:17:00;7.09;99.99
68804;SHT31;55787;52.678;13.314;2023-02-03T09:19:27;7.13;99.99
68804;SHT31;55787;52.678;13.314;2023-02-03T09:21:53;7.20;99.98
68804;SHT31;55787;52.678;13.314;2023-02-03T09:24:22;7.23;99.94
68804;SHT31;55787;52.678;13.314;2023-02-03T09:26:49;7.19;99.99
68804;SHT31;55787;52.678;13.314;2023-02-03T09:29:16;7.19;99.99
68804;SHT31;55787;52.678;13.314;2023-02-03T09:31:44;7.26;99.89
68804;SHT31;55787;52.678;13.314;2023-02-03T09:34:12;7.24;99.98
68804;SHT31;55787;52.678;13.314;2023-02-03T09:36:39;7.27;99.99
68804;SHT31;55787;52.678;13.314;2023-02-03T09:39:08;7.35;99.94
68804;SHT31;55787;52.678;13.314;2023-02-03T09:47:16;7.41;99.66
68804;SHT31;55787;52.678;13.314;2023-02-03T09:49:50;7.35;99.77
68804;SHT31;55787;52.678;13.314;2023-02-03T09:52:37;7.44;99.73
68804;SHT31;55787;52.678;13.314;2023-02-03T09:55:23;7.53;99.38
68804;SHT31;55787;52.678;13.314;2023-02-03T09:57:57;7.48;99.40
68804;SHT31;55787;52.678;13.314;2023-02-03T10:00:32;7.48;99.22
68804;SHT31;55787;52.678;13.314;2023-02-03T10:14:44;7.61;98.58
68804;SHT31;55787;52.678;13.314;2023-02-03T10:17:34;7.67;98.87
68804;SHT31;55787;52.678;13.314;2023-02-03T10:23:15;7.61;98.48
68804;SHT31;55787;52.678;13.314;2023-02-03T10:25:46;7.60;98.76
68804;SHT31;55787;52.678;13.314;2023-02-03T10:28:21;7.54;98.18
68804;SHT31;55787;52.678;13.314;2023-02-03T10:30:56;7.51;97.89
68804;SHT31;55787;52.678;13.314;2023-02-03T10:33:29;7.40;97.12
68804;SHT31;55787;52.678;13.314;2023-02-03T10:38:53;7.04;93.05
68804;SHT31;55787;52.678;13.314;2023-02-03T10:41:23;6.89;94.02
68804;SHT31;55787;52.678;13.314;2023-02-03T10:43:51;6.79;93.42
68804;SHT31;55787;52.678;13.314;2023-02-03T10:46:33;6.75;93.66
68804;SHT31;55787;52.678;13.314;2023-02-03T10:49:00;6.69;92.90
68804;SHT31;55787;52.678;13.314;2023-02-03T10:51:31;6.65;93.09
68804;SHT31;55787;52.678;13.314;2023-02-03T10:54:00;6.65;92.92
68804;SHT31;55787;52.678;13.314;2023-02-03T10:56:34;6.69;92.74
68804;SHT31;55787;52.678;13.314;2023-02-03T10:59:02;6.65;92.58
68804;SHT31;55787;52.678;13.314;2023-02-03T11:01:46;6.68;92.90
68804;SHT31;55787;52.678;13.314;2023-02-03T11:04:24;6.67;93.18
68804;SHT31;55787;52.678;13.314;2023-02-03T11:06:54;6.71;92.26
68804;SHT31;55787;52.678;13.314;2023-02-03T11:12:25;6.86;91.25
68804;SHT31;55787;52.678;13.314;2023-02-03T11:14:53;6.92;90.38
68804;SHT31;55787;52.678;13.314;2023-02-03T11:17:24;6.97;89.19
68804;SHT31;55787;52.678;13.314;2023-02-03T11:20:13;7.02;89.17
68804;SHT31;55787;52.678;13.314;2023-02-03T11:22:41;6.95;89.28
68804;SHT31;55787;52.678;13.314;2023-02-03T11:25:18;6.99;89.30
68804;SHT31;55787;52.678;13.314;2023-02-03T11:27:45;7.22;89.23
68804;SHT31;55787;52.678;13.314;2023-02-03T11:32:46;7.37;88.82
68804;SHT31;55787;52.678;13.314;2023-02-03T11:35:19;7.60;89.13
68804;SHT31;55787;52.678;13.314;2023-02-03T11:37:55;7.74;87.07
68804;SHT31;55787;52.678;13.314;2023-02-03T11:40:24;7.88;87.62
68804;SHT31;55787;52.678;13.314;2023-02-03T11:45:33;8.02;87.51
68804;SHT31;55787;52.678;13.314;2023-02-03T12:13:12;8.75;80.36
68804;SHT31;55787;52.678;13.314;2023-02-03T12:21:55;8.88;81.52
68804;SHT31;55787;52.678;13.314;2023-02-03T12:24:47;8.85;80.23
68804;SHT31;55787;52.678;13.314;2023-02-03T12:30:31;8.74;81.08
68804;SHT31;55787;52.678;13.314;2023-02-03T12:33:04;8.71;80.49
68804;SHT31;55787;52.678;13.314;2023-02-03T12:38:06;8.44;79.02
68804;SHT31;55787;52.678;13.314;2023-02-03T12:40:57;8.25;81.73
68804;SHT31;55787;52.678;13.314;2023-02-03T12:43:47;6.13;84.51
68804;SHT31;55787;52.678;13.314;2023-02-03T12:46:29;4.73;89.11
68804;SHT31;55787;52.678;13.314;2023-02-03T12:49:10;4.16;92.61
68804;SHT31;55787;52.678;13.314;2023-02-03T12:52:00;4.06;95.03
68804;SHT31;55787;52.678;13.314;2023-02-03T12:54:41;4.09;94.82
68804;SHT31;55787;52.678;13.314;2023-02-03T13:03:05;5.18;93.27
68804;SHT31;55787;52.678;13.314;2023-02-03T13:05:54;5.27;93.90
68804;SHT31;55787;52.678;13.314;2023-02-03T13:13:51;5.32;94.43
68804;SHT31;55787;52.678;13.314;2023-02-03T13:16:23;5.35;94.86
68804;SHT31;55787;52.678;13.314;2023-02-03T13:18:59;5.35;94.34
68804;SHT31;55787;52.678;13.314;2023-02-03T13:21:27;5.38;93.65
68804;SHT31;55787;52.678;13.314;2023-02-03T13:23:54;5.34;93.63
68804;SHT31;55787;52.678;13.314;2023-02-03T13:29:44;5.72;92.55
68804;SHT31;55787;52.678;13.314;2023-02-03T13:33:34;6.06;91.17
68804;SHT31;55787;52.678;13.314;2023-02-03T13:41:16;6.91;86.12
68804;SHT31;55787;52.678;13.314;2023-02-03T13:43:50;6.99;86.05
68804;SHT31;55787;52.678;13.314;2023-02-03T13:46:32;7.07;86.26
68804;SHT31;55787;52.678;13.314;2023-02-03T13:49:02;7.10;85.27
68804;SHT31;55787;52.678;13.314;2023-02-03T13:51:32;7.30;84.77
68804;SHT31;55787;52.678;13.314;2023-02-03T13:54:06;7.46;83.26
68804;SHT31;55787;52.678;13.314;2023-02-03T13:56:34;7.51;83.47
68804;SHT31;55787;52.678;13.314;2023-02-03T14:01:41;7.98;82.44
68804;SHT31;55787;52.678;13.314;2023-02-03T14:09:34;7.67;82.97
68804;SHT31;55787;52.678;13.314;2023-02-03T14:14:58;7.74;83.01
68804;SHT31;55787;52.678;13.314;2023-02-03T14:20:07;8.17;81.78
68804;SHT31;55787;52.678;13.314;2023-02-03T14:22:57;8.25;80.88
68804;SHT31;55787;52.678;13.314;2023-02-03T14:25:25;8.34;80.69
68804;SHT31;55787;52.678;13.314;2023-02-03T14:27:59;8.34;80.91
68804;SHT31;55787;52.678;13.314;2023-02-03T14:30:28;8.30;81.23
68804;SHT31;55787;52.678;13.314;2023-02-03T14:32:58;8.21;80.80
68804;SHT31;55787;52.678;13.314;2023-02-03T14:35:31;8.02;80.69
68804;SHT31;55787;52.678;13.314;2023-02-03T14:38:03;8.05;81.41
68804;SHT31;55787;52.678;13.314;2023-02-03T14:40:56;8.03;82.20
68804;SHT31;55787;52.678;13.314;2023-02-03T14:46:49;7.88;81.05
68804;SHT31;55787;52.678;13.314;2023-02-03T14:57:11;7.51;79.15
68804;SHT31;55787;52.678;13.314;2023-02-03T14:59:53;7.53;80.10
68804;SHT31;55787;52.678;13.314;2023-02-03T15:02:24;7.43;81.20
68804;SHT31;55787;52.678;13.314;2023-02-03T15:07:47;7.22;83.74
68804;SHT31;55787;52.678;13.314;2023-02-03T15:10:20;7.04;85.28
68804;SHT31;55787;52.678;13.314;2023-02-03T15:15:26;6.67;89.45
68804;SHT31;55787;52.678;13.314;2023-02-03T15:17:56;6.48;90.25
68804;SHT31;55787;52.678;13.314;2023-02-03T15:20:35;6.46;89.53
68804;SHT31;55787;52.678;13.314;2023-02-03T15:23:24;6.45;89.66
68804;SHT31;55787;52.678;13.314;2023-02-03T15:25:55;6.44;88.84
68804;SHT31;55787;52.678;13.314;2023-02-03T15:28:25;6.44;87.62
68804;SHT31;55787;52.678;13.314;2023-02-03T15:33:30;6.51;87.40
68804;SHT31;55787;52.678;13.314;2023-02-03T15:36:08;6.49;86.71
68804;SHT31;55787;52.678;13.314;2023-02-03T15:38:43;6.45;86.99
68804;SHT31;55787;52.678;13.314;2023-02-03T15:41:18;6.45;86.61
68804;SHT31;55787;52.678;13.314;2023-02-03T15:43:50;6.48;87.16
68804;SHT31;55787;52.678;13.314;2023-02-03T15:46:29;6.44;87.69
68804;SHT31;55787;52.678;13.314;2023-02-03T15:51:36;6.34;88.17
68804;SHT31;55787;52.678;13.314;2023-02-03T15:54:10;6.28;88.02
68804;SHT31;55787;52.678;13.314;2023-02-03T15:56:49;6.34;88.70
68804;SHT31;55787;52.678;13.314;2023-02-03T15:59:35;6.23;88.67
68804;SHT31;55787;52.678;13.314;2023-02-03T16:02:29;6.30;88.66
68804;SHT31;55787;52.678;13.314;2023-02-03T16:05:03;6.27;89.27
68804;SHT31;55787;52.678;13.314;2023-02-03T16:07:30;6.27;89.51
68804;SHT31;55787;52.678;13.314;2023-02-03T16:09:58;6.28;88.81
68804;SHT31;55787;52.678;13.314;2023-02-03T16:12:30;6.31;89.12
68804;SHT31;55787;52.678;13.314;2023-02-03T16:15:00;6.28;88.55
68804;SHT31;55787;52.678;13.314;2023-02-03T16:17:35;6.30;88.37
68804;SHT31;55787;52.678;13.314;2023-02-03T16:22:42;6.31;88.47
68804;SHT31;55787;52.678;13.314;2023-02-03T16:25:18;6.25;88.28
68804;SHT31;55787;52.678;13.314;2023-02-03T16:31:09;6.31;88.65
68804;SHT31;55787;52.678;13.314;2023-02-03T16:33:59;6.32;88.81
68804;SHT31;55787;52.678;13.314;2023-02-03T16:36:45;6.31;89.34
68804;SHT31;55787;52.678;13.314;2023-02-03T16:39:30;6.28;88.10
68804;SHT31;55787;52.678;13.314;2023-02-03T16:42:18;6.27;89.02
68804;SHT31;55787;52.678;13.314;2023-02-03T16:45:16;6.27;89.02
68804;SHT31;55787;52.678;13.314;2023-02-03T16:48:02;6.28;88.61
68804;SHT31;55787;52.678;13.314;2023-02-03T16:50:48;6.30;88.48
68804;SHT31;55787;52.678;13.314;2023-02-03T16:53:29;6.30;88.20
68804;SHT31;55787;52.678;13.314;2023-02-03T16:55:58;6.30;88.34
68804;SHT31;55787;52.678;13.314;2023-02-03T16:58:26;6.28;87.87
68804;SHT31;55787;52.678;13.314;2023-02-03T17:00:53;6.30;88.15
68804;SHT31;55787;52.678;13.314;2023-02-03T17:03:22;6.24;88.20
68804;SHT31;55787;52.678;13.314;2023-02-03T17:05:50;6.18;88.09
68804;SHT31;55787;52.678;13.314;2023-02-03T17:08:20;6.24;88.54
68804;SHT31;55787;52.678;13.314;2023-02-03T17:10:47;6.21;88.32
68804;SHT31;55787;52.678;13.314;2023-02-03T17:13:16;6.23;88.34
68804;SHT31;55787;52.678;13.314;2023-02-03T17:15:48;6.21;88.34
68804;SHT31;55787;52.678;13.314;2023-02-03T17:18:18;6.17;88.28
68804;SHT31;55787;52.678;13.314;2023-02-03T17:20:46;6.24;88.12
68804;SHT31;55787;52.678;13.314;2023-02-03T17:23:13;6.20;87.85
68804;SHT31;55787;52.678;13.314;2023-02-03T17:25:46;6.27;87.73
68804;SHT31;55787;52.678;13.314;2023-02-03T17:28:13;6.31;87.33
68804;SHT31;55787;52.678;13.314;2023-02-03T17:30:41;6.30;86.90
68804;SHT31;55787;52.678;13.314;2023-02-03T17:33:08;6.34;87.01
68804;SHT31;55787;52.678;13.314;2023-02-03T17:35:42;6.40;86.55
68804;SHT31;55787;52.678;13.314;2023-02-03T17:38:12;6.35;85.50
68804;SHT31;55787;52.678;13.314;2023-02-03T17:40:42;6.42;86.29
68804;SHT31;55787;52.678;13.314;2023-02-03T17:43:27;6.37;86.50
68804;SHT31;55787;52.678;13.314;2023-02-03T17:46:15;6.37;86.49
68804;SHT31;55787;52.678;13.314;2023-02-03T17:48:59;6.45;86.11
68804;SHT31;55787;52.678;13.314;2023-02-03T17:51:44;6.41;86.19
68804;SHT31;55787;52.678;13.314;2023-02-03T17:54:28;6.44;86.59
68804;SHT31;55787;52.678;13.314;2023-02-03T17:56:54;6.38;86.27
68804;SHT31;55787;52.678;13.314;2023-02-03T17:59:21;6.41;86.48
68804;SHT31;55787;52.678;13.314;2023-02-03T18:01:47;6.45;86.13
68804;SHT31;55787;52.678;13.314;2023-02-03T18:04:14;6.45;86.52
68804;SHT31;55787;52.678;13.314;2023-02-03T18:06:41;6.45;86.41
68804;SHT31;55787;52.678;13.314;2023-02-03T18:09:08;6.46;86.52
68804;SHT31;55787;52.678;13.314;2023-02-03T18:11:36;6.45;86.68
68804;SHT31;55787;52.678;13.314;2023-02-03T18:14:03;6.42;86.64
68804;SHT31;55787;52.678;13.314;2023-02-03T18:16:32;6.45;86.88
68804;SHT31;55787;52.678;13.314;2023-02-03T18:19:04;6.45;86.35
68804;SHT31;55787;52.678;13.314;2023-02-03T18:21:32;6.49;86.30
68804;SHT31;55787;52.678;13.314;2023-02-03T18:23:59;6.48;86.14
68804;SHT31;55787;52.678;13.314;2023-02-03T18:26:29;6.49;86.14